x

Destruction Island, Wa (desw1) Weather Station

6:00 - Thu 27th Nov 2014 All times are PST. -8 hours from GMT.

  • Wind
    28mph, 31mph gusts
  • Aire Temp 55°f
  • Sea Pressure 1006.3mb
  • Destruction Island, Wa
  • Destruction Island, Wa

More Historic Weather Station data

Upgrade to MSW Pro to gain access to the past 30 days of data for over 8000 Wavebouys and Weather Stations around the globe.

Join Pro

Comparision Forecast

View Surf forecast
   
jue 11/27 6:00 28 31 mph 1006.3mb 55f
5:00 25 26 mph 1006.8mb 55f
4:00 29 31 mph 1007.1mb 55f
3:00 30 31 mph 1007.3mb 55f
2:00 28 30 mph 1008mb 55f
1:00 29 31 mph 1008.3mb 55f
12:00 30 32 mph 1008.6mb 55f
11:00 28 31 mph 1009.1mb 55f
10:00 24 26 mph 1009.1mb 54f
9:00 23 26 mph 1009.7mb 55f
8:00 26 29 mph 1009.6mb 55f
7:00 28 29 mph 1009.5mb 55f
6:00 25 26 mph 1009.3mb 55f
5:00 22 25 mph 1009.3mb 54f
4:00 24 26 mph 1009.4mb 54f
3:00 18 20 mph 1010mb 54f
2:00 22 24 mph 1010.3mb 54f
1:00 22 24 mph 1010.5mb 55f
12:00 31 34 mph 1010.3mb 55f
mié 11/26 11:00 32 40 mph 1009.7mb 54f
10:00 36 39 mph 1009.7mb 54f
9:00 43 47 mph 1009.9mb 54f
8:00 41 46 mph 1010.7mb 54f
7:00 33 37 mph 1010.2mb 54f
6:00 34 38 mph 1012.2mb 54f
5:00 25 26 mph 1013.6mb 53f
4:00 22 23 mph 1014.4mb 53f
3:00 25 28 mph 1015.5mb 53f
2:00 25 28 mph 1016.4mb 53f
1:00 30 32 mph 1016.8mb 53f
12:00 25 28 mph 1018.3mb 53f
11:00 26 31 mph 1018.9mb 53f
10:00 30 33 mph 1018.9mb 53f
9:00 26 28 mph 1018.7mb 53f
8:00 24 29 mph 1019.4mb 53f
7:00 20 22 mph 1019.7mb 53f
6:00 20 23 mph 1019.8mb 53f
5:00 23 24 mph 1020.1mb 54f
4:00 22 23 mph 1020.4mb 54f
3:00 17 18 mph 1021.2mb 54f
2:00 21 22 mph 1021.4mb 54f
1:00 17 20 mph 1021.9mb 54f
12:00 20 22 mph 1022.2mb 54f
mar 11/25 11:00 24 26 mph 1021.9mb 55f
10:00 23 24 mph 1021.7mb 54f
9:00 20 22 mph 1021.8mb 54f
8:00 24 26 mph 1021.5mb 55f
7:00 21 22 mph 1021.6mb 55f
6:00 21 22 mph 1022.2mb 55f
5:00 21 22 mph 1022mb 55f
4:00 22 24 mph 1022mb 54f
3:00 24 25 mph 1022.1mb 54f
2:00 24 25 mph 1022mb 54f
1:00 22 23 mph 1022.2mb 55f
12:00 23 24 mph 1022.1mb 52f
11:00 13 14 mph 1022.9mb 50f
10:00 8 10 mph 1022.9mb 49f
9:00 2
mph
1022.5mb 49f
8:00 3
mph
1022.1mb 49f
7:00 3
mph
1022.4mb 49f
6:00 7 8 mph 1022.1mb 49f
5:00 5
mph
1021.8mb 49f
4:00 1 2 mph 1021.6mb 51f
3:00 3
mph
1022mb 51f
2:00 10 11 mph 1022mb 52f
1:00 16 17 mph 1021.4mb 53f
12:00 20 21 mph 1020.9mb 53f
lun 11/24 11:00 20
mph
1020.4mb 53f
10:00 14 16 mph 1020.1mb 53f
9:00 15 16 mph 1019.7mb 53f
8:00 23 25 mph 1019.3mb 54f
7:00 24 26 mph 1018.7mb 54f
6:00 30 32 mph 1018.6mb 50f
5:00 31 33 mph 1018.7mb 50f
4:00 32 37 mph 1019.5mb 50f
3:00 33 37 mph 1020.1mb 50f
2:00 28 30 mph 1021.5mb 51f
1:00 29 31 mph 1022.6mb 50f
12:00 24 26 mph 1023.5mb 50f
11:00 28 31 mph 1024.1mb 50f
10:00 24 28 mph 1024.8mb 50f
9:00 28 31 mph 1024.8mb 49f
8:00 24 26 mph 1025mb 49f
7:00 24 25 mph 1024.9mb 49f
6:00 21 23 mph 1025.5mb 49f
5:00 20 22 mph 1026mb 48f
4:00 18 20 mph 1026.3mb 48f